Rechercher aéroport 
image banner adimage banner adimage banner ad
image banner ad

CA15 - Sierra Nevada Memorial Hospital

Situé à Grass Valley, United States

ICAO - CA15, IATA -

Données fournies par Airmate  

Information générale

Coordonnées: N39°13'39" W121°2'51"
Élévation : 2718 feet MSL.
Variation magnétique : 14° East
Voir autres Aéroports à California

Données opérationnelles

Special qualification required
Heure actuelle UTC:
Heure actuelle locale:
Météo à : KGOO - Nevada County Air Park ( 4 km )
METAR: KGOO 231515Z AUTO 10004KT 10SM CLR 23/03 A3006 RMK A01
Voir NOTAMs / SUP AIP / TFR affectant cet aéroport [VIEW]
Fréquences de communication: [VIEW]

Pistes:

Coordonnées de l'aéroport

Adresse: Grass Valley United States

Vue satellite de CA15